Terminal Aerodrome Forecast
Issued by NWS

Home | Current Version | Previous Version | Text Only | Print | Product List | Glossary On
Versions: 1 2 3 4 5 6 7 8 9 10 11 12 13 14 15 16 17 18 19 20 21 22
000
FTUS43 KIND 270900 AAA
TAFBMG
TAF AMD
KBMG 270901Z 2709/2806 21005KT P6SM SCT040
     FM271400 23010KT P6SM BKN040
     FM271800 23012G18KT P6SM VCTS BKN040CB
     FM272300 25008G15KT P6SM BKN100
     FM280200 28003KT P6SM SKC
      AMD LTD TO CLD VIS AND WIND TIL 271300=

USA.gov is the U.S. government's official web portal to all federal, state and local government web resources and services.